sensor_id;sensor_type;location;lat;lon;timestamp;pressure;altitude;pressure_sealevel;temperature;humidity
84673;BME280;74899;42.256;23.284;2024-03-23T00:53:50;88611.41;;;-3.58;77.88
84673;BME280;74899;42.256;23.284;2024-03-23T00:56:16;88608.63;;;-3.63;78.83
84673;BME280;74899;42.256;23.284;2024-03-23T00:58:41;88604.03;;;-3.59;78.73
84673;BME280;74899;42.256;23.284;2024-03-23T01:01:07;88608.09;;;-3.58;77.96
84673;BME280;74899;42.256;23.284;2024-03-23T01:03:33;88600.13;;;-3.62;77.45
84673;BME280;74899;42.256;23.284;2024-03-23T01:06:02;88603.13;;;-3.73;78.07
84673;BME280;74899;42.256;23.284;2024-03-23T01:08:32;88590.84;;;-3.83;79.14
84673;BME280;74899;42.256;23.284;2024-03-23T01:11:00;88585.16;;;-3.92;78.79
84673;BME280;74899;42.256;23.284;2024-03-23T01:13:27;88604.38;;;-3.84;79.65
84673;BME280;74899;42.256;23.284;2024-03-23T01:15:55;88590.00;;;-3.90;80.05
84673;BME280;74899;42.256;23.284;2024-03-23T01:18:23;88606.78;;;-3.76;79.55
84673;BME280;74899;42.256;23.284;2024-03-23T01:20:49;88594.34;;;-3.77;79.05
84673;BME280;74899;42.256;23.284;2024-03-23T01:23:15;88597.19;;;-3.87;78.85
84673;BME280;74899;42.256;23.284;2024-03-23T01:25:40;88609.84;;;-3.80;80.10
84673;BME280;74899;42.256;23.284;2024-03-23T01:28:07;88596.66;;;-3.82;79.73
84673;BME280;74899;42.256;23.284;2024-03-23T01:30:34;88590.03;;;-3.83;79.97
84673;BME280;74899;42.256;23.284;2024-03-23T01:33:00;88600.56;;;-3.80;79.81
84673;BME280;74899;42.256;23.284;2024-03-23T01:35:26;88598.47;;;-3.76;79.11
84673;BME280;74899;42.256;23.284;2024-03-23T01:37:52;88600.31;;;-3.85;80.32
84673;BME280;74899;42.256;23.284;2024-03-23T01:40:18;88599.34;;;-3.84;80.00
84673;BME280;74899;42.256;23.284;2024-03-23T01:43:05;88600.06;;;-3.69;78.66
84673;BME280;74899;42.256;23.284;2024-03-23T01:45:33;88580.59;;;-3.81;78.38
84673;BME280;74899;42.256;23.284;2024-03-23T01:48:00;88594.72;;;-3.80;79.12
84673;BME280;74899;42.256;23.284;2024-03-23T01:50:26;88596.00;;;-3.91;79.84
84673;BME280;74899;42.256;23.284;2024-03-23T01:52:53;88590.50;;;-3.80;79.96
84673;BME280;74899;42.256;23.284;2024-03-23T01:55:21;88580.94;;;-3.84;79.10
84673;BME280;74899;42.256;23.284;2024-03-23T01:57:47;88596.47;;;-3.81;79.74
84673;BME280;74899;42.256;23.284;2024-03-23T02:00:13;88572.13;;;-3.95;79.57
84673;BME280;74899;42.256;23.284;2024-03-23T02:02:46;88583.06;;;-3.88;79.79
84673;BME280;74899;42.256;23.284;2024-03-23T02:05:12;88579.63;;;-3.80;79.84
84673;BME280;74899;42.256;23.284;2024-03-23T02:07:39;88585.25;;;-4.00;79.85
84673;BME280;74899;42.256;23.284;2024-03-23T02:10:06;88564.63;;;-4.10;80.07
84673;BME280;74899;42.256;23.284;2024-03-23T02:12:32;88582.38;;;-3.97;79.19
84673;BME280;74899;42.256;23.284;2024-03-23T02:15:00;88581.06;;;-4.14;80.09
84673;BME280;74899;42.256;23.284;2024-03-23T02:17:26;88587.53;;;-4.26;79.97
84673;BME280;74899;42.256;23.284;2024-03-23T02:19:52;88588.34;;;-4.19;80.33
84673;BME280;74899;42.256;23.284;2024-03-23T02:22:18;88586.25;;;-4.16;80.44
84673;BME280;74899;42.256;23.284;2024-03-23T02:24:43;88587.75;;;-4.21;79.41
84673;BME280;74899;42.256;23.284;2024-03-23T02:27:10;88586.97;;;-4.22;79.30
84673;BME280;74899;42.256;23.284;2024-03-23T02:29:36;88601.72;;;-4.19;80.35
84673;BME280;74899;42.256;23.284;2024-03-23T02:32:02;88588.09;;;-4.24;79.81
84673;BME280;74899;42.256;23.284;2024-03-23T02:34:29;88579.00;;;-4.25;80.13
84673;BME280;74899;42.256;23.284;2024-03-23T02:36:55;88593.53;;;-4.06;78.85
84673;BME280;74899;42.256;23.284;2024-03-23T02:39:21;88600.31;;;-4.06;78.11
84673;BME280;74899;42.256;23.284;2024-03-23T02:41:47;88578.94;;;-4.32;78.64
84673;BME280;74899;42.256;23.284;2024-03-23T02:44:13;88594.94;;;-4.54;79.85
84673;BME280;74899;42.256;23.284;2024-03-23T02:46:39;88595.59;;;-4.31;80.84
84673;BME280;74899;42.256;23.284;2024-03-23T02:49:06;88585.72;;;-4.32;80.82
84673;BME280;74899;42.256;23.284;2024-03-23T02:51:32;88588.13;;;-4.39;81.22
84673;BME280;74899;42.256;23.284;2024-03-23T02:53:58;88589.41;;;-4.50;81.48
84673;BME280;74899;42.256;23.284;2024-03-23T02:56:23;88576.38;;;-4.53;79.59
84673;BME280;74899;42.256;23.284;2024-03-23T02:58:49;88574.47;;;-4.51;79.90
84673;BME280;74899;42.256;23.284;2024-03-23T03:01:15;88591.97;;;-4.43;79.68
84673;BME280;74899;42.256;23.284;2024-03-23T03:03:42;88592.41;;;-4.40;79.74
84673;BME280;74899;42.256;23.284;2024-03-23T03:06:08;88587.75;;;-4.58;81.44
84673;BME280;74899;42.256;23.284;2024-03-23T03:08:34;88578.56;;;-4.65;80.63
84673;BME280;74899;42.256;23.284;2024-03-23T03:11:00;88587.66;;;-4.49;81.15
84673;BME280;74899;42.256;23.284;2024-03-23T03:13:25;88589.56;;;-4.51;81.04
84673;BME280;74899;42.256;23.284;2024-03-23T03:15:52;88588.69;;;-4.44;80.61
84673;BME280;74899;42.256;23.284;2024-03-23T03:18:19;88587.09;;;-4.45;80.65
84673;BME280;74899;42.256;23.284;2024-03-23T03:20:45;88589.88;;;-4.40;80.82
84673;BME280;74899;42.256;23.284;2024-03-23T03:23:11;88588.09;;;-4.61;81.89
84673;BME280;74899;42.256;23.284;2024-03-23T03:25:37;88576.13;;;-4.59;81.21
84673;BME280;74899;42.256;23.284;2024-03-23T03:28:03;88577.34;;;-4.69;81.68
84673;BME280;74899;42.256;23.284;2024-03-23T03:30:29;88577.44;;;-4.63;81.70
84673;BME280;74899;42.256;23.284;2024-03-23T03:32:55;88584.97;;;-4.63;81.37
84673;BME280;74899;42.256;23.284;2024-03-23T03:35:21;88580.28;;;-4.66;80.95
84673;BME280;74899;42.256;23.284;2024-03-23T03:37:47;88569.97;;;-4.56;79.79
84673;BME280;74899;42.256;23.284;2024-03-23T03:40:13;88580.88;;;-4.49;79.72
84673;BME280;74899;42.256;23.284;2024-03-23T03:42:41;88590.63;;;-4.61;79.80
84673;BME280;74899;42.256;23.284;2024-03-23T03:45:07;88583.34;;;-4.56;80.45
84673;BME280;74899;42.256;23.284;2024-03-23T03:47:34;88587.13;;;-4.60;80.45
84673;BME280;74899;42.256;23.284;2024-03-23T03:50:00;88579.34;;;-4.50;80.92
84673;BME280;74899;42.256;23.284;2024-03-23T03:52:26;88592.53;;;-4.63;80.69
84673;BME280;74899;42.256;23.284;2024-03-23T03:55:00;88582.91;;;-4.74;81.47
84673;BME280;74899;42.256;23.284;2024-03-23T03:57:28;88580.13;;;-4.64;81.74
84673;BME280;74899;42.256;23.284;2024-03-23T03:59:54;88596.00;;;-4.64;82.00
84673;BME280;74899;42.256;23.284;2024-03-23T04:02:20;88592.63;;;-4.56;81.46
84673;BME280;74899;42.256;23.284;2024-03-23T04:04:46;88587.78;;;-4.72;80.55
84673;BME280;74899;42.256;23.284;2024-03-23T04:07:12;88593.22;;;-4.69;80.88
84673;BME280;74899;42.256;23.284;2024-03-23T04:09:38;88588.28;;;-4.77;80.63
84673;BME280;74899;42.256;23.284;2024-03-23T04:12:04;88603.91;;;-4.67;80.77
84673;BME280;74899;42.256;23.284;2024-03-23T04:14:30;88573.91;;;-4.83;81.92
84673;BME280;74899;42.256;23.284;2024-03-23T04:16:56;88593.06;;;-4.82;82.62
84673;BME280;74899;42.256;23.284;2024-03-23T04:19:22;88591.75;;;-4.78;82.77
84673;BME280;74899;42.256;23.284;2024-03-23T04:21:48;88591.25;;;-4.73;81.64
84673;BME280;74899;42.256;23.284;2024-03-23T04:24:14;88599.72;;;-4.74;81.34
84673;BME280;74899;42.256;23.284;2024-03-23T04:26:41;88610.47;;;-4.66;80.86
84673;BME280;74899;42.256;23.284;2024-03-23T04:29:07;88591.59;;;-4.76;81.20
84673;BME280;74899;42.256;23.284;2024-03-23T04:31:33;88588.81;;;-4.82;83.10
84673;BME280;74899;42.256;23.284;2024-03-23T04:34:01;88592.19;;;-4.74;82.49
84673;BME280;74899;42.256;23.284;2024-03-23T04:36:28;88582.50;;;-4.92;82.11
84673;BME280;74899;42.256;23.284;2024-03-23T04:39:00;88593.09;;;-4.97;81.32
84673;BME280;74899;42.256;23.284;2024-03-23T04:41:27;88607.88;;;-4.72;81.64
84673;BME280;74899;42.256;23.284;2024-03-23T04:43:53;88599.91;;;-4.76;81.63
84673;BME280;74899;42.256;23.284;2024-03-23T04:46:26;88596.50;;;-4.68;78.96
84673;BME280;74899;42.256;23.284;2024-03-23T04:48:52;88592.97;;;-4.74;79.35
84673;BME280;74899;42.256;23.284;2024-03-23T04:51:22;88597.56;;;-4.63;80.56
84673;BME280;74899;42.256;23.284;2024-03-23T04:53:48;88601.53;;;-4.53;80.44
84673;BME280;74899;42.256;23.284;2024-03-23T04:56:18;88605.16;;;-4.41;79.47
84673;BME280;74899;42.256;23.284;2024-03-23T04:58:45;88611.84;;;-4.48;80.71
84673;BME280;74899;42.256;23.284;2024-03-23T05:01:11;88590.59;;;-4.46;80.40
84673;BME280;74899;42.256;23.284;2024-03-23T05:03:37;88593.31;;;-4.26;78.34
84673;BME280;74899;42.256;23.284;2024-03-23T05:06:03;88593.44;;;-4.13;77.79
84673;BME280;74899;42.256;23.284;2024-03-23T05:08:31;88610.03;;;-4.03;79.19
84673;BME280;74899;42.256;23.284;2024-03-23T05:10:56;88598.56;;;-4.06;79.76
84673;BME280;74899;42.256;23.284;2024-03-23T05:13:22;88582.34;;;-4.03;79.07
84673;BME280;74899;42.256;23.284;2024-03-23T05:15:55;88598.88;;;-3.94;79.11
84673;BME280;74899;42.256;23.284;2024-03-23T05:18:22;88583.53;;;-3.99;78.87
84673;BME280;74899;42.256;23.284;2024-03-23T05:20:48;88591.13;;;-3.93;79.05
84673;BME280;74899;42.256;23.284;2024-03-23T05:23:14;88583.47;;;-3.84;79.36
84673;BME280;74899;42.256;23.284;2024-03-23T05:25:40;88578.25;;;-3.61;79.17
84673;BME280;74899;42.256;23.284;2024-03-23T05:28:05;88582.28;;;-3.39;77.82
84673;BME280;74899;42.256;23.284;2024-03-23T05:30:32;88580.13;;;-3.42;77.94
84673;BME280;74899;42.256;23.284;2024-03-23T05:32:58;88579.06;;;-3.26;77.94
84673;BME280;74899;42.256;23.284;2024-03-23T05:35:24;88573.97;;;-3.05;77.93
84673;BME280;74899;42.256;23.284;2024-03-23T05:37:50;88584.56;;;-2.88;76.15
84673;BME280;74899;42.256;23.284;2024-03-23T05:40:18;88579.59;;;-2.75;76.29
84673;BME280;74899;42.256;23.284;2024-03-23T05:42:45;88578.25;;;-2.70;75.57
84673;BME280;74899;42.256;23.284;2024-03-23T05:45:11;88578.31;;;-2.57;75.74
84673;BME280;74899;42.256;23.284;2024-03-23T05:47:36;88573.47;;;-2.52;75.27
84673;BME280;74899;42.256;23.284;2024-03-23T05:50:03;88583.66;;;-2.25;74.20
84673;BME280;74899;42.256;23.284;2024-03-23T05:52:30;88580.34;;;-2.26;73.47
84673;BME280;74899;42.256;23.284;2024-03-23T05:54:56;88564.97;;;-2.38;73.87
84673;BME280;74899;42.256;23.284;2024-03-23T05:57:22;88578.84;;;-2.14;74.00
84673;BME280;74899;42.256;23.284;2024-03-23T05:59:48;88559.25;;;-2.05;72.81
84673;BME280;74899;42.256;23.284;2024-03-23T06:02:14;88566.47;;;-1.82;72.30
84673;BME280;74899;42.256;23.284;2024-03-23T06:04:39;88552.91;;;-1.74;72.90
84673;BME280;74899;42.256;23.284;2024-03-23T06:07:05;88564.19;;;-1.50;72.24
84673;BME280;74899;42.256;23.284;2024-03-23T06:09:42;88555.06;;;-1.31;71.40
84673;BME280;74899;42.256;23.284;2024-03-23T06:12:08;88555.63;;;-1.16;71.06
84673;BME280;74899;42.256;23.284;2024-03-23T06:14:34;88555.22;;;-0.93;70.17
84673;BME280;74899;42.256;23.284;2024-03-23T06:17:00;88555.75;;;-0.78;68.87
84673;BME280;74899;42.256;23.284;2024-03-23T06:19:27;88554.00;;;-0.77;69.53
84673;BME280;74899;42.256;23.284;2024-03-23T06:21:54;88567.41;;;-0.63;69.56
84673;BME280;74899;42.256;23.284;2024-03-23T06:24:21;88556.88;;;-0.54;68.44
84673;BME280;74899;42.256;23.284;2024-03-23T06:26:47;88547.25;;;-0.38;68.21
84673;BME280;74899;42.256;23.284;2024-03-23T06:29:16;88561.03;;;-0.21;66.28
84673;BME280;74899;42.256;23.284;2024-03-23T06:31:42;88552.56;;;-0.02;65.79
84673;BME280;74899;42.256;23.284;2024-03-23T06:34:08;88554.59;;;0.21;65.76
84673;BME280;74899;42.256;23.284;2024-03-23T06:36:34;88557.38;;;0.45;64.79
84673;BME280;74899;42.256;23.284;2024-03-23T06:39:05;88557.97;;;0.72;64.13
84673;BME280;74899;42.256;23.284;2024-03-23T06:41:31;88556.28;;;0.91;64.07
84673;BME280;74899;42.256;23.284;2024-03-23T06:43:57;88546.00;;;1.04;63.78
84673;BME280;74899;42.256;23.284;2024-03-23T06:46:23;88547.78;;;1.22;61.83
84673;BME280;74899;42.256;23.284;2024-03-23T06:48:49;88547.41;;;1.62;61.83
84673;BME280;74899;42.256;23.284;2024-03-23T06:51:15;88546.25;;;1.76;60.76
84673;BME280;74899;42.256;23.284;2024-03-23T06:53:41;88554.63;;;1.95;58.73
84673;BME280;74899;42.256;23.284;2024-03-23T06:56:08;88544.97;;;2.34;58.49
84673;BME280;74899;42.256;23.284;2024-03-23T06:58:34;88543.75;;;2.79;56.62
84673;BME280;74899;42.256;23.284;2024-03-23T07:01:00;88547.75;;;3.10;55.98
84673;BME280;74899;42.256;23.284;2024-03-23T07:03:26;88546.66;;;3.41;54.77
84673;BME280;74899;42.256;23.284;2024-03-23T07:05:51;88530.59;;;3.64;54.32
84673;BME280;74899;42.256;23.284;2024-03-23T07:08:17;88535.97;;;3.91;51.46
84673;BME280;74899;42.256;23.284;2024-03-23T07:10:48;88536.28;;;3.95;49.11
84673;BME280;74899;42.256;23.284;2024-03-23T07:13:14;88525.03;;;4.19;48.70
84673;BME280;74899;42.256;23.284;2024-03-23T07:15:40;88528.56;;;4.47;49.35
84673;BME280;74899;42.256;23.284;2024-03-23T07:18:06;88525.53;;;4.78;49.19
84673;BME280;74899;42.256;23.284;2024-03-23T07:20:32;88513.53;;;4.96;48.36
84673;BME280;74899;42.256;23.284;2024-03-23T07:22:58;88521.13;;;5.08;43.42
84673;BME280;74899;42.256;23.284;2024-03-23T07:25:25;88512.69;;;5.24;44.57
84673;BME280;74899;42.256;23.284;2024-03-23T07:27:54;88523.13;;;5.39;42.63
84673;BME280;74899;42.256;23.284;2024-03-23T07:30:21;88505.78;;;5.41;42.81
84673;BME280;74899;42.256;23.284;2024-03-23T07:32:47;88505.69;;;5.53;43.61
84673;BME280;74899;42.256;23.284;2024-03-23T07:35:14;88510.06;;;5.75;43.21
84673;BME280;74899;42.256;23.284;2024-03-23T07:37:41;88510.13;;;5.80;44.17
84673;BME280;74899;42.256;23.284;2024-03-23T07:40:07;88504.72;;;5.76;45.52
84673;BME280;74899;42.256;23.284;2024-03-23T07:42:34;88498.81;;;6.20;44.46
84673;BME280;74899;42.256;23.284;2024-03-23T07:45:00;88503.50;;;6.50;45.38
84673;BME280;74899;42.256;23.284;2024-03-23T07:47:26;88498.25;;;6.62;43.21
84673;BME280;74899;42.256;23.284;2024-03-23T07:49:52;88496.91;;;6.86;43.34
84673;BME280;74899;42.256;23.284;2024-03-23T07:52:18;88498.34;;;7.04;42.39
84673;BME280;74899;42.256;23.284;2024-03-23T07:54:45;88493.34;;;6.33;39.99
84673;BME280;74899;42.256;23.284;2024-03-23T07:57:11;88477.88;;;6.77;38.59
84673;BME280;74899;42.256;23.284;2024-03-23T07:59:37;88484.53;;;7.10;38.60
84673;BME280;74899;42.256;23.284;2024-03-23T08:02:03;88479.50;;;7.20;35.79
84673;BME280;74899;42.256;23.284;2024-03-23T08:04:31;88485.03;;;7.44;36.07
84673;BME280;74899;42.256;23.284;2024-03-23T08:06:57;88482.38;;;7.66;36.88
84673;BME280;74899;42.256;23.284;2024-03-23T08:09:23;88481.56;;;7.66;36.19
84673;BME280;74899;42.256;23.284;2024-03-23T08:11:49;88485.94;;;7.65;33.08
84673;BME280;74899;42.256;23.284;2024-03-23T08:14:21;88480.84;;;7.70;30.18
84673;BME280;74899;42.256;23.284;2024-03-23T08:16:48;88475.16;;;7.68;30.43
84673;BME280;74899;42.256;23.284;2024-03-23T08:19:15;88472.22;;;7.97;30.63
84673;BME280;74899;42.256;23.284;2024-03-23T08:21:46;88472.13;;;7.77;23.47
84673;BME280;74899;42.256;23.284;2024-03-23T08:24:11;88479.06;;;7.76;22.59
84673;BME280;74899;42.256;23.284;2024-03-23T08:26:38;88468.44;;;8.05;25.12
84673;BME280;74899;42.256;23.284;2024-03-23T08:29:05;88464.72;;;7.75;25.79
84673;BME280;74899;42.256;23.284;2024-03-23T08:31:31;88468.66;;;8.03;22.88
84673;BME280;74899;42.256;23.284;2024-03-23T08:33:57;88468.41;;;8.10;26.00
84673;BME280;74899;42.256;23.284;2024-03-23T08:36:23;88464.72;;;8.53;26.06
84673;BME280;74899;42.256;23.284;2024-03-23T08:38:49;88463.75;;;8.80;25.36
84673;BME280;74899;42.256;23.284;2024-03-23T08:41:21;88463.25;;;8.98;27.21
84673;BME280;74899;42.256;23.284;2024-03-23T08:43:47;88474.50;;;8.51;24.42
84673;BME280;74899;42.256;23.284;2024-03-23T08:46:15;88467.34;;;8.74;26.35
84673;BME280;74899;42.256;23.284;2024-03-23T08:48:45;88461.19;;;8.90;25.92
84673;BME280;74899;42.256;23.284;2024-03-23T08:51:15;88460.66;;;9.03;27.43
84673;BME280;74899;42.256;23.284;2024-03-23T08:53:42;88463.25;;;9.08;26.81
84673;BME280;74899;42.256;23.284;2024-03-23T08:56:09;88462.22;;;9.25;28.52
84673;BME280;74899;42.256;23.284;2024-03-23T08:58:36;88455.78;;;9.22;27.82
84673;BME280;74899;42.256;23.284;2024-03-23T09:01:10;88444.19;;;9.40;27.64
84673;BME280;74899;42.256;23.284;2024-03-23T09:03:38;88447.81;;;9.29;31.14
84673;BME280;74899;42.256;23.284;2024-03-23T09:06:21;88449.34;;;9.40;32.42
84673;BME280;74899;42.256;23.284;2024-03-23T09:08:47;88452.44;;;9.42;32.24
84673;BME280;74899;42.256;23.284;2024-03-23T09:11:13;88445.69;;;9.62;34.22
84673;BME280;74899;42.256;23.284;2024-03-23T09:13:39;88443.94;;;9.57;33.60
84673;BME280;74899;42.256;23.284;2024-03-23T09:16:07;88432.81;;;9.72;32.86
84673;BME280;74899;42.256;23.284;2024-03-23T09:18:35;88443.63;;;9.74;34.42
84673;BME280;74899;42.256;23.284;2024-03-23T09:21:02;88432.00;;;9.82;33.60
84673;BME280;74899;42.256;23.284;2024-03-23T09:23:29;88433.00;;;10.01;32.88
84673;BME280;74899;42.256;23.284;2024-03-23T09:25:55;88428.22;;;9.64;34.03
84673;BME280;74899;42.256;23.284;2024-03-23T09:28:22;88416.88;;;9.65;32.74
84673;BME280;74899;42.256;23.284;2024-03-23T09:30:47;88403.75;;;9.61;35.49
84673;BME280;74899;42.256;23.284;2024-03-23T09:33:13;88413.19;;;9.91;34.84
84673;BME280;74899;42.256;23.284;2024-03-23T09:35:40;88418.53;;;10.05;32.41
84673;BME280;74899;42.256;23.284;2024-03-23T09:38:06;88415.34;;;10.39;32.46
84673;BME280;74899;42.256;23.284;2024-03-23T09:40:41;88424.66;;;10.25;33.57
84673;BME280;74899;42.256;23.284;2024-03-23T09:43:07;88401.56;;;9.99;33.22
84673;BME280;74899;42.256;23.284;2024-03-23T09:45:36;88406.75;;;9.94;34.00
84673;BME280;74899;42.256;23.284;2024-03-23T09:48:04;88394.50;;;10.25;33.37
84673;BME280;74899;42.256;23.284;2024-03-23T09:50:31;88397.84;;;10.31;32.96
84673;BME280;74899;42.256;23.284;2024-03-23T09:52:56;88391.97;;;10.15;32.02
84673;BME280;74899;42.256;23.284;2024-03-23T09:55:22;88393.50;;;10.21;33.62
84673;BME280;74899;42.256;23.284;2024-03-23T09:57:49;88383.06;;;10.47;33.78
84673;BME280;74899;42.256;23.284;2024-03-23T10:00:15;88386.06;;;10.14;34.05
84673;BME280;74899;42.256;23.284;2024-03-23T10:02:42;88385.16;;;10.44;33.50
84673;BME280;74899;42.256;23.284;2024-03-23T10:05:20;88386.09;;;10.59;32.90
84673;BME280;74899;42.256;23.284;2024-03-23T10:07:51;88376.63;;;10.49;30.34
84673;BME280;74899;42.256;23.284;2024-03-23T10:10:18;88375.97;;;10.67;33.37
84673;BME280;74899;42.256;23.284;2024-03-23T10:12:49;88377.19;;;10.80;32.84
84673;BME280;74899;42.256;23.284;2024-03-23T10:15:24;88378.28;;;10.69;31.43
84673;BME280;74899;42.256;23.284;2024-03-23T10:17:51;88373.00;;;10.89;33.02
84673;BME280;74899;42.256;23.284;2024-03-23T10:20:21;88372.91;;;11.00;31.96
84673;BME280;74899;42.256;23.284;2024-03-23T10:22:51;88377.25;;;11.04;32.56
84673;BME280;74899;42.256;23.284;2024-03-23T10:25:22;88381.00;;;11.17;32.07
84673;BME280;74899;42.256;23.284;2024-03-23T10:28:01;88370.25;;;11.10;32.36
84673;BME280;74899;42.256;23.284;2024-03-23T10:30:27;88357.31;;;11.15;31.67
84673;BME280;74899;42.256;23.284;2024-03-23T10:33:10;88362.06;;;11.32;31.84
84673;BME280;74899;42.256;23.284;2024-03-23T10:35:37;88347.75;;;10.86;29.48
84673;BME280;74899;42.256;23.284;2024-03-23T10:38:07;88362.47;;;11.15;30.97
84673;BME280;74899;42.256;23.284;2024-03-23T10:40:37;88355.72;;;11.43;33.66
84673;BME280;74899;42.256;23.284;2024-03-23T10:43:08;88353.63;;;11.50;30.88
84673;BME280;74899;42.256;23.284;2024-03-23T10:45:34;88357.78;;;11.17;29.39
84673;BME280;74899;42.256;23.284;2024-03-23T10:48:01;88341.75;;;11.20;31.11
84673;BME280;74899;42.256;23.284;2024-03-23T10:50:27;88345.66;;;11.47;30.49
84673;BME280;74899;42.256;23.284;2024-03-23T10:52:53;88333.16;;;10.72;26.91
84673;BME280;74899;42.256;23.284;2024-03-23T10:55:22;88357.25;;;10.91;27.54
84673;BME280;74899;42.256;23.284;2024-03-23T10:57:54;88338.38;;;10.96;29.06
84673;BME280;74899;42.256;23.284;2024-03-23T11:00:21;88337.44;;;10.52;27.45
84673;BME280;74899;42.256;23.284;2024-03-23T11:02:49;88325.63;;;10.46;30.00
84673;BME280;74899;42.256;23.284;2024-03-23T11:05:46;88333.75;;;10.63;28.86
84673;BME280;74899;42.256;23.284;2024-03-23T11:08:30;88339.88;;;10.38;27.32
84673;BME280;74899;42.256;23.284;2024-03-23T11:11:18;88333.28;;;10.56;28.81
84673;BME280;74899;42.256;23.284;2024-03-23T11:13:47;88336.19;;;10.79;29.35
84673;BME280;74899;42.256;23.284;2024-03-23T11:16:21;88332.34;;;10.76;28.30
84673;BME280;74899;42.256;23.284;2024-03-23T11:18:48;88317.13;;;10.80;27.47
84673;BME280;74899;42.256;23.284;2024-03-23T11:21:51;88322.22;;;10.85;27.53
84673;BME280;74899;42.256;23.284;2024-03-23T11:24:19;88327.56;;;10.94;26.71
84673;BME280;74899;42.256;23.284;2024-03-23T11:26:46;88314.41;;;10.95;27.33
84673;BME280;74899;42.256;23.284;2024-03-23T11:29:17;88317.41;;;10.73;27.01
84673;BME280;74899;42.256;23.284;2024-03-23T11:31:50;88312.44;;;10.82;26.15
84673;BME280;74899;42.256;23.284;2024-03-23T11:34:20;88303.88;;;10.92;27.37
84673;BME280;74899;42.256;23.284;2024-03-23T11:36:46;88306.03;;;11.08;27.23
84673;BME280;74899;42.256;23.284;2024-03-23T11:39:18;88298.63;;;11.02;25.76
84673;BME280;74899;42.256;23.284;2024-03-23T11:41:53;88296.56;;;10.99;27.05
84673;BME280;74899;42.256;23.284;2024-03-23T11:44:20;88296.16;;;10.92;27.09
84673;BME280;74899;42.256;23.284;2024-03-23T11:46:48;88294.50;;;11.01;25.45
84673;BME280;74899;42.256;23.284;2024-03-23T11:49:27;88285.72;;;10.73;26.79
84673;BME280;74899;42.256;23.284;2024-03-23T11:51:54;88286.44;;;10.78;27.25
84673;BME280;74899;42.256;23.284;2024-03-23T11:54:23;88286.56;;;10.97;27.44
84673;BME280;74899;42.256;23.284;2024-03-23T11:59:41;88280.75;;;10.81;26.01
84673;BME280;74899;42.256;23.284;2024-03-23T12:02:11;88268.31;;;10.88;26.98
84673;BME280;74899;42.256;23.284;2024-03-23T12:04:40;88272.56;;;11.03;26.81
84673;BME280;74899;42.256;23.284;2024-03-23T12:07:15;88269.22;;;11.03;26.59
84673;BME280;74899;42.256;23.284;2024-03-23T12:09:41;88261.91;;;11.10;26.01
84673;BME280;74899;42.256;23.284;2024-03-23T12:12:15;88261.53;;;10.98;26.38
84673;BME280;74899;42.256;23.284;2024-03-23T12:15:01;88256.72;;;11.15;27.61
84673;BME280;74899;42.256;23.284;2024-03-23T12:17:27;88248.03;;;11.06;26.46
84673;BME280;74899;42.256;23.284;2024-03-23T12:19:53;88252.09;;;11.12;26.05
84673;BME280;74899;42.256;23.284;2024-03-23T12:22:22;88247.16;;;11.16;26.41
84673;BME280;74899;42.256;23.284;2024-03-23T12:24:49;88251.38;;;11.30;25.58
84673;BME280;74899;42.256;23.284;2024-03-23T12:27:16;88251.91;;;11.51;26.71
84673;BME280;74899;42.256;23.284;2024-03-23T12:29:42;88233.09;;;11.70;27.14
84673;BME280;74899;42.256;23.284;2024-03-23T12:32:13;88253.13;;;11.59;27.72
84673;BME280;74899;42.256;23.284;2024-03-23T12:34:40;88233.53;;;11.34;26.49
84673;BME280;74899;42.256;23.284;2024-03-23T12:37:08;88241.69;;;11.65;28.12
84673;BME280;74899;42.256;23.284;2024-03-23T12:39:35;88241.66;;;11.22;27.08
84673;BME280;74899;42.256;23.284;2024-03-23T12:42:02;88245.84;;;11.18;27.27
84673;BME280;74899;42.256;23.284;2024-03-23T12:44:31;88226.78;;;11.14;26.30
84673;BME280;74899;42.256;23.284;2024-03-23T12:46:57;88206.06;;;11.43;27.35
84673;BME280;74899;42.256;23.284;2024-03-23T12:49:24;88225.19;;;11.61;28.12
84673;BME280;74899;42.256;23.284;2024-03-23T12:51:54;88213.03;;;11.43;27.44
84673;BME280;74899;42.256;23.284;2024-03-23T12:54:21;88218.81;;;11.34;27.62
84673;BME280;74899;42.256;23.284;2024-03-23T12:56:47;88202.59;;;10.86;28.78
84673;BME280;74899;42.256;23.284;2024-03-23T12:59:15;88209.25;;;10.92;28.64
84673;BME280;74899;42.256;23.284;2024-03-23T13:01:44;88211.06;;;11.34;29.47
84673;BME280;74899;42.256;23.284;2024-03-23T13:04:10;88206.63;;;11.40;29.85
84673;BME280;74899;42.256;23.284;2024-03-23T13:06:36;88202.09;;;11.51;29.42
84673;BME280;74899;42.256;23.284;2024-03-23T13:09:04;88184.81;;;11.51;28.89
84673;BME280;74899;42.256;23.284;2024-03-23T13:11:30;88193.50;;;11.37;29.84
84673;BME280;74899;42.256;23.284;2024-03-23T13:13:56;88202.31;;;11.35;29.65
84673;BME280;74899;42.256;23.284;2024-03-23T13:16:22;88196.44;;;11.49;29.83
84673;BME280;74899;42.256;23.284;2024-03-23T13:18:50;88182.09;;;11.43;30.35
84673;BME280;74899;42.256;23.284;2024-03-23T13:21:17;88158.09;;;11.23;30.06
84673;BME280;74899;42.256;23.284;2024-03-23T13:23:46;88186.66;;;11.27;28.70
84673;BME280;74899;42.256;23.284;2024-03-23T13:26:13;88176.81;;;11.29;29.31
84673;BME280;74899;42.256;23.284;2024-03-23T13:28:41;88181.09;;;11.39;28.58
84673;BME280;74899;42.256;23.284;2024-03-23T13:31:07;88184.09;;;11.46;29.19
84673;BME280;74899;42.256;23.284;2024-03-23T13:33:34;88173.84;;;11.41;28.90
84673;BME280;74899;42.256;23.284;2024-03-23T13:36:00;88170.59;;;11.35;29.07
84673;BME280;74899;42.256;23.284;2024-03-23T13:38:26;88165.47;;;11.30;27.74
84673;BME280;74899;42.256;23.284;2024-03-23T13:40:53;88181.25;;;11.04;28.70
84673;BME280;74899;42.256;23.284;2024-03-23T13:43:20;88171.09;;;11.13;29.40
84673;BME280;74899;42.256;23.284;2024-03-23T13:46:04;88164.22;;;11.27;28.32
84673;BME280;74899;42.256;23.284;2024-03-23T13:48:30;88166.16;;;11.17;29.40
84673;BME280;74899;42.256;23.284;2024-03-23T13:51:03;88176.56;;;11.30;28.09